createdAt,value
2019-03-22T00:01:42.954Z,25.03
2019-03-22T00:04:47.059Z,21.23
2019-03-22T00:07:50.813Z,37.03
2019-03-22T00:10:55.432Z,18.60
2019-03-22T00:13:59.504Z,16.43
2019-03-22T00:17:03.211Z,16.80
2019-03-22T00:20:08.148Z,16.63
2019-03-22T00:23:12.707Z,18.20
2019-03-22T00:26:16.434Z,19.03
2019-03-22T00:29:20.468Z,17.40
2019-03-22T00:32:24.179Z,14.10
2019-03-22T00:35:27.902Z,19.50
2019-03-22T00:38:31.604Z,17.57
2019-03-22T00:41:35.619Z,15.60
2019-03-22T00:44:39.619Z,10.63
2019-03-22T00:47:43.648Z,19.73
2019-03-22T00:50:47.397Z,20.53
2019-03-22T00:53:51.143Z,19.93
2019-03-22T00:56:56.192Z,18.53
2019-03-22T00:59:59.901Z,15.93
2019-03-22T01:03:04.077Z,18.53
2019-03-22T01:06:09.650Z,21.77
2019-03-22T01:09:13.359Z,18.60
2019-03-22T01:12:17.486Z,20.50
2019-03-22T01:15:21.197Z,20.40
2019-03-22T01:18:25.023Z,24.63
2019-03-22T01:21:29.237Z,23.53
2019-03-22T01:24:34.366Z,23.70
2019-03-22T01:27:40.593Z,14.93
2019-03-22T01:30:47.200Z,18.27
2019-03-22T01:33:50.921Z,19.27
2019-03-22T01:36:55.101Z,25.30
2019-03-22T01:39:58.827Z,16.77
2019-03-22T01:43:02.944Z,12.00
2019-03-22T01:46:06.631Z,12.30
2019-03-22T01:49:10.358Z,16.33
2019-03-22T01:52:14.108Z,14.00
2019-03-22T01:55:18.171Z,32.77
2019-03-22T01:58:22.352Z,17.00
2019-03-22T02:01:26.083Z,14.33
2019-03-22T02:04:29.806Z,16.90
2019-03-22T02:07:33.552Z,21.30
2019-03-22T02:10:37.771Z,10.60
2019-03-22T02:13:41.893Z,21.13
2019-03-22T02:16:46.276Z,13.47
2019-03-22T02:19:50.419Z,15.67
2019-03-22T02:22:54.256Z,18.13
2019-03-22T02:25:58.476Z,19.97
2019-03-22T02:29:02.558Z,22.47
2019-03-22T02:32:07.038Z,17.37
2019-03-22T02:35:26.925Z,18.10
2019-03-22T02:38:16.699Z,14.53
2019-03-22T02:41:20.756Z,11.40
2019-03-22T02:44:25.581Z,25.60
2019-03-22T02:47:29.277Z,13.57
2019-03-22T02:50:34.450Z,22.73
2019-03-22T02:53:38.544Z,17.73
2019-03-22T02:56:42.990Z,14.60
2019-03-22T02:59:47.426Z,16.57
2019-03-22T03:02:51.503Z,16.33
2019-03-22T03:05:55.272Z,13.90
2019-03-22T03:09:00.092Z,20.23
2019-03-22T03:12:03.934Z,13.57
2019-03-22T03:15:09.735Z,14.43
2019-03-22T03:18:14.105Z,15.67
2019-03-22T03:21:17.847Z,18.40
2019-03-22T03:24:21.970Z,16.13
2019-03-22T03:27:26.059Z,15.57
2019-03-22T03:30:29.870Z,13.90
2019-03-22T03:33:33.998Z,23.23
2019-03-22T03:36:37.749Z,29.70
2019-03-22T03:39:42.481Z,16.70
2019-03-22T03:42:46.207Z,16.63
2019-03-22T03:45:51.023Z,16.33
2019-03-22T03:48:55.085Z,12.90
2019-03-22T03:51:58.806Z,16.20
2019-03-22T03:55:04.368Z,13.60
2019-03-22T03:58:09.077Z,21.43
2019-03-22T04:01:13.137Z,12.27
2019-03-22T04:04:17.319Z,22.87
2019-03-22T04:07:21.021Z,13.00
2019-03-22T04:10:24.742Z,20.73
2019-03-22T04:13:29.633Z,14.27
2019-03-22T04:16:33.376Z,9.70
2019-03-22T04:19:37.069Z,14.53
2019-03-22T04:22:41.158Z,13.70
2019-03-22T04:25:45.213Z,12.40
2019-03-22T04:28:49.683Z,11.63
2019-03-22T04:31:53.530Z,14.00
2019-03-22T04:34:57.600Z,13.40
2019-03-22T04:38:01.763Z,18.30
2019-03-22T04:41:06.661Z,13.80
2019-03-22T04:44:10.408Z,16.87
2019-03-22T04:47:19.424Z,21.97
2019-03-22T04:50:26.243Z,16.80
2019-03-22T04:53:39.719Z,16.30
2019-03-22T04:56:44.519Z,26.17
2019-03-22T04:59:52.060Z,14.33
2019-03-22T05:02:56.281Z,15.40
2019-03-22T05:06:02.783Z,17.47
2019-03-22T05:09:13.804Z,12.73
2019-03-22T05:12:21.328Z,16.73
2019-03-22T05:15:25.555Z,12.57
2019-03-22T05:18:32.383Z,10.00
2019-03-22T05:21:37.040Z,10.70
2019-03-22T05:24:43.653Z,16.03
2019-03-22T05:27:50.899Z,16.00
2019-03-22T05:31:31.253Z,9.70
2019-03-22T05:34:34.972Z,15.10
2019-03-22T05:37:38.743Z,14.70
2019-03-22T05:40:42.455Z,10.50
2019-03-22T05:43:46.244Z,12.13
2019-03-22T05:46:50.380Z,10.37
2019-03-22T05:49:54.108Z,9.87
2019-03-22T05:52:57.808Z,12.93
2019-03-22T05:56:01.534Z,34.17
2019-03-22T05:59:05.602Z,11.33
2019-03-22T06:02:09.308Z,14.97
2019-03-22T06:05:13.032Z,12.63
2019-03-22T06:08:16.744Z,15.20
2019-03-22T06:11:21.229Z,13.07
2019-03-22T06:14:25.227Z,19.67
2019-03-22T06:17:29.638Z,10.73
2019-03-22T06:20:33.735Z,13.47
2019-03-22T06:23:37.460Z,12.93
2019-03-22T06:26:41.292Z,14.77
2019-03-22T06:29:54.024Z,57.23
2019-03-22T06:32:52.315Z,26.73
2019-03-22T06:35:57.339Z,11.17
2019-03-22T06:39:01.763Z,10.80
2019-03-22T06:42:07.211Z,9.97
2019-03-22T06:45:11.877Z,11.77
2019-03-22T06:48:15.577Z,11.03
2019-03-22T06:51:19.315Z,18.53
2019-03-22T06:54:31.448Z,18.70
2019-03-22T06:57:29.088Z,15.13
2019-03-22T07:00:33.372Z,19.73
2019-03-22T07:03:37.954Z,11.43
2019-03-22T07:06:42.051Z,14.53
2019-03-22T07:09:46.086Z,12.50
2019-03-22T07:12:50.178Z,17.33
2019-03-22T07:15:54.333Z,13.70
2019-03-22T07:18:59.046Z,26.73
2019-03-22T07:22:03.150Z,12.93
2019-03-22T07:25:07.376Z,10.63
2019-03-22T07:28:12.044Z,24.90
2019-03-22T07:31:16.096Z,27.83
2019-03-22T07:34:19.815Z,18.43
2019-03-22T07:37:23.889Z,23.50
2019-03-22T07:40:28.323Z,18.90
2019-03-22T07:43:32.365Z,12.97
2019-03-22T07:46:36.087Z,16.60
2019-03-22T07:49:40.648Z,19.50
2019-03-22T07:52:44.376Z,23.30
2019-03-22T07:55:48.444Z,23.87
2019-03-22T07:58:52.165Z,22.97
2019-03-22T08:01:56.268Z,21.10
2019-03-22T08:05:01.611Z,24.70
2019-03-22T08:08:05.324Z,19.00
2019-03-22T08:11:09.425Z,19.60
2019-03-22T08:14:16.319Z,17.50
2019-03-22T08:17:20.249Z,38.43
2019-03-22T08:20:24.109Z,19.40
2019-03-22T08:23:28.358Z,22.70
2019-03-22T08:26:33.572Z,18.03
2019-03-22T08:29:38.283Z,17.60
2019-03-22T08:32:42.856Z,21.47
2019-03-22T08:35:46.568Z,17.70
2019-03-22T08:38:51.413Z,22.87
2019-03-22T08:41:55.240Z,26.73
2019-03-22T08:44:58.966Z,22.70
2019-03-22T08:48:02.769Z,18.27
2019-03-22T08:51:06.860Z,26.43
2019-03-22T08:54:10.952Z,18.90
2019-03-22T08:57:14.661Z,26.23
2019-03-22T09:00:18.484Z,21.57
2019-03-22T09:03:22.298Z,19.63
2019-03-22T09:06:26.028Z,20.80
2019-03-22T09:09:40.936Z,16.90
2019-03-22T09:12:36.525Z,16.63
2019-03-22T09:15:41.381Z,20.33
2019-03-22T09:18:45.838Z,14.87
2019-03-22T09:21:50.065Z,14.30
2019-03-22T09:24:54.136Z,8.43
2019-03-22T09:27:58.048Z,9.37
2019-03-22T09:31:10.221Z,14.57
2019-03-22T09:34:07.794Z,5.67
2019-03-22T09:37:11.938Z,14.97
2019-03-22T09:40:15.651Z,8.10
2019-03-22T09:43:19.478Z,10.50
2019-03-22T09:46:23.211Z,9.00
2019-03-22T09:49:26.905Z,9.33
2019-03-22T09:52:33.598Z,15.50
2019-03-22T09:55:37.362Z,11.00
2019-03-22T09:58:41.376Z,8.47
2019-03-22T10:01:45.443Z,5.47
2019-03-22T10:04:49.140Z,6.37
2019-03-22T10:07:52.875Z,9.37
2019-03-22T10:10:57.305Z,17.40
2019-03-22T10:14:01.826Z,10.83
2019-03-22T10:17:05.610Z,13.90
2019-03-22T10:20:09.830Z,8.50
2019-03-22T10:23:14.094Z,10.50
2019-03-22T10:26:17.770Z,15.13
2019-03-22T10:29:22.405Z,9.77
2019-03-22T10:32:26.142Z,21.13
2019-03-22T10:35:29.849Z,6.33
2019-03-22T10:38:34.594Z,7.17
2019-03-22T10:41:38.396Z,5.83
2019-03-22T10:44:42.253Z,7.73
2019-03-22T10:47:46.122Z,10.40
2019-03-22T10:50:50.262Z,7.10
2019-03-22T10:53:54.813Z,20.20
2019-03-22T10:56:59.072Z,10.60
2019-03-22T11:00:03.457Z,12.07
2019-03-22T11:03:08.748Z,4.80
2019-03-22T11:06:14.082Z,7.20
2019-03-22T11:09:18.157Z,7.23
2019-03-22T11:12:21.890Z,11.60
2019-03-22T11:15:27.037Z,5.43
2019-03-22T11:18:37.272Z,6.63
2019-03-22T11:21:36.705Z,7.23
2019-03-22T11:24:41.267Z,9.53
2019-03-22T11:27:45.370Z,12.70
2019-03-22T11:30:49.536Z,8.50
2019-03-22T11:33:53.300Z,7.67
2019-03-22T11:36:57.414Z,7.00
2019-03-22T11:40:01.906Z,8.10
2019-03-22T11:43:08.981Z,13.70
2019-03-22T11:46:11.751Z,7.43
2019-03-22T11:49:15.791Z,9.53
2019-03-22T11:52:19.491Z,5.73
2019-03-22T11:55:23.219Z,6.77
2019-03-22T11:58:27.207Z,6.37
2019-03-22T12:01:30.947Z,5.07
2019-03-22T12:04:35.437Z,6.30
2019-03-22T12:07:39.140Z,11.63
2019-03-22T12:10:42.866Z,7.20
2019-03-22T12:13:46.684Z,6.37
2019-03-22T12:16:51.182Z,10.80
2019-03-22T12:19:55.320Z,4.50
2019-03-22T12:22:59.047Z,4.53
2019-03-22T12:26:04.120Z,5.53
2019-03-22T12:29:08.761Z,6.80
2019-03-22T12:32:12.799Z,7.20
2019-03-22T12:35:18.492Z,7.17
2019-03-22T12:38:22.549Z,3.60
2019-03-22T12:41:26.599Z,7.00
2019-03-22T12:44:30.670Z,4.97
2019-03-22T12:47:36.527Z,5.03
2019-03-22T12:50:40.265Z,3.87
2019-03-22T12:53:44.360Z,2.93
2019-03-22T12:56:50.021Z,2.40
2019-03-22T12:59:54.747Z,4.87
2019-03-22T13:02:58.471Z,4.43
2019-03-22T13:06:03.280Z,2.10
2019-03-22T13:09:08.700Z,3.50
2019-03-22T13:12:13.222Z,4.33
2019-03-22T13:15:16.950Z,4.70
2019-03-22T13:18:22.805Z,4.37
2019-03-22T13:21:26.513Z,5.10
2019-03-22T13:24:31.542Z,4.23
2019-03-22T13:27:35.562Z,3.40
2019-03-22T13:30:39.371Z,3.50
2019-03-22T13:33:43.884Z,2.33
2019-03-22T13:36:47.822Z,4.30
2019-03-22T13:39:51.976Z,2.30
2019-03-22T13:42:56.077Z,2.83
2019-03-22T13:46:00.179Z,2.10
2019-03-22T13:49:05.283Z,3.00
2019-03-22T13:52:08.992Z,4.83
2019-03-22T13:55:15.461Z,2.30
2019-03-22T13:58:19.291Z,3.40
2019-03-22T14:01:23.384Z,2.60
2019-03-22T14:04:27.551Z,3.70
2019-03-22T14:07:31.300Z,3.97
2019-03-22T14:10:35.581Z,1.47
2019-03-22T14:13:39.842Z,1.17
2019-03-22T14:16:43.687Z,2.37
2019-03-22T14:19:47.409Z,1.73
2019-03-22T14:22:53.834Z,1.57
2019-03-22T14:25:57.435Z,4.73
2019-03-22T14:29:01.156Z,4.77
2019-03-22T14:32:04.895Z,4.77
2019-03-22T14:35:10.790Z,1.53
2019-03-22T14:38:15.616Z,5.43
2019-03-22T14:41:19.904Z,4.37
2019-03-22T14:44:25.886Z,2.60
2019-03-22T14:47:31.564Z,8.23
2019-03-22T14:50:35.289Z,1.87
2019-03-22T14:53:38.998Z,2.53
2019-03-22T14:56:43.729Z,6.60
2019-03-22T14:59:47.791Z,2.83
2019-03-22T15:02:51.527Z,2.03
2019-03-22T15:05:56.205Z,2.40
2019-03-22T15:09:00.264Z,2.70
2019-03-22T15:12:04.064Z,1.90
2019-03-22T15:15:26.579Z,1.40
2019-03-22T15:18:53.258Z,2.30
2019-03-22T15:22:18.522Z,3.77
2019-03-22T15:25:50.921Z,2.20
2019-03-22T15:29:12.933Z,4.00
2019-03-22T15:32:28.887Z,2.10
2019-03-22T15:35:57.865Z,4.60
2019-03-22T15:42:35.568Z,2.50
2019-03-22T15:45:40.496Z,1.00
2019-03-22T15:48:45.022Z,1.60
2019-03-22T15:51:49.064Z,1.17
2019-03-22T15:54:53.237Z,0.87
2019-03-22T15:57:58.331Z,2.00
2019-03-22T16:01:02.540Z,1.67
2019-03-22T16:04:06.282Z,1.80
2019-03-22T16:07:10.699Z,1.83
2019-03-22T16:10:14.431Z,1.43
2019-03-22T16:13:18.160Z,2.20
2019-03-22T16:16:21.974Z,1.00
2019-03-22T16:19:25.687Z,5.10
2019-03-22T16:22:30.790Z,1.60
2019-03-22T16:25:34.965Z,1.37
2019-03-22T16:28:38.671Z,2.03
2019-03-22T16:31:42.951Z,1.00
2019-03-22T16:34:46.685Z,1.70
2019-03-22T16:37:51.685Z,1.73
2019-03-22T16:40:55.707Z,2.73
2019-03-22T16:43:59.414Z,2.87
2019-03-22T16:47:05.161Z,17.23
2019-03-22T16:50:22.776Z,14.10
2019-03-22T16:53:26.511Z,1.47
2019-03-22T16:56:30.972Z,7.30
2019-03-22T16:59:35.053Z,9.13
2019-03-22T17:02:38.803Z,3.43
2019-03-22T17:05:42.626Z,19.33
2019-03-22T17:08:46.348Z,1.73
2019-03-22T17:11:50.087Z,1.63
2019-03-22T17:14:53.804Z,1.13
2019-03-22T17:17:58.059Z,4.03
2019-03-22T17:21:01.793Z,2.13
2019-03-22T17:24:05.592Z,5.97
2019-03-22T17:27:10.113Z,2.73
2019-03-22T17:30:15.487Z,1.90
2019-03-22T17:33:19.651Z,1.80
2019-03-22T17:36:24.195Z,1.53
2019-03-22T17:39:28.220Z,3.53
2019-03-22T17:42:32.667Z,12.53
2019-03-22T17:45:37.260Z,7.13
2019-03-22T17:48:40.969Z,11.47
2019-03-22T17:51:44.707Z,1.90
2019-03-22T17:54:48.855Z,5.13
2019-03-22T17:57:53.904Z,2.57
2019-03-22T18:00:58.177Z,1.67
2019-03-22T18:04:01.895Z,2.90
2019-03-22T18:07:05.651Z,6.03
2019-03-22T18:10:10.670Z,14.97
2019-03-22T18:13:14.415Z,6.63
2019-03-22T18:16:18.149Z,4.50
2019-03-22T18:19:22.291Z,3.17
2019-03-22T18:22:25.982Z,1.33
2019-03-22T18:25:30.161Z,6.23
2019-03-22T18:28:34.193Z,15.17
2019-03-22T18:31:38.321Z,2.00
2019-03-22T18:34:42.040Z,2.33
2019-03-22T18:37:45.765Z,26.67
2019-03-22T18:40:49.461Z,4.50
2019-03-22T18:43:54.835Z,3.13
2019-03-22T18:46:59.280Z,21.57
2019-03-22T18:50:05.880Z,1.70
2019-03-22T18:53:09.499Z,16.17
2019-03-22T18:56:13.229Z,8.27
2019-03-22T18:59:17.327Z,4.43
2019-03-22T19:02:21.094Z,5.00
2019-03-22T19:05:25.885Z,6.57
2019-03-22T19:08:29.992Z,11.40
2019-03-22T19:11:33.704Z,15.87
2019-03-22T19:14:37.455Z,15.10
2019-03-22T19:17:41.982Z,18.10
2019-03-22T19:20:45.700Z,12.83
2019-03-22T19:23:49.444Z,9.90
2019-03-22T19:26:53.153Z,7.30
2019-03-22T19:29:56.882Z,5.17
2019-03-22T19:33:00.910Z,7.63
2019-03-22T19:36:04.650Z,18.13
2019-03-22T19:39:08.377Z,9.03
2019-03-22T19:42:12.549Z,12.20
2019-03-22T19:45:16.949Z,5.37
2019-03-22T19:48:21.430Z,2.20
2019-03-22T19:51:26.159Z,3.03
2019-03-22T19:54:31.215Z,6.43
2019-03-22T19:57:35.272Z,3.90
2019-03-22T20:00:39.785Z,2.10
2019-03-22T20:03:44.103Z,22.10
2019-03-22T20:06:47.815Z,3.20
2019-03-22T20:09:52.083Z,12.07
2019-03-22T20:12:58.316Z,5.03
2019-03-22T20:16:02.443Z,12.70
2019-03-22T20:19:06.180Z,3.90
2019-03-22T20:22:10.274Z,1.23
2019-03-22T20:25:14.818Z,1.83
2019-03-22T20:28:19.027Z,1.53
2019-03-22T20:31:22.915Z,3.50
2019-03-22T20:34:26.723Z,15.17
2019-03-22T20:37:30.557Z,6.30
2019-03-22T20:40:34.426Z,4.20
2019-03-22T20:43:38.170Z,5.77
2019-03-22T20:46:42.274Z,2.37
2019-03-22T20:49:46.338Z,3.30
2019-03-22T20:52:50.085Z,5.10
2019-03-22T20:55:56.043Z,4.30
2019-03-22T20:59:00.099Z,3.40
2019-03-22T21:02:03.832Z,5.03
2019-03-22T21:05:09.864Z,3.57
2019-03-22T21:08:14.699Z,2.20
2019-03-22T21:11:19.021Z,4.73
2019-03-22T21:14:23.025Z,2.90
2019-03-22T21:17:26.747Z,2.10
2019-03-22T21:20:30.564Z,2.87
2019-03-22T21:23:36.512Z,3.47
2019-03-22T21:26:39.935Z,4.50
2019-03-22T21:29:44.676Z,3.37
2019-03-22T21:32:48.863Z,2.30
2019-03-22T21:35:54.314Z,4.30
2019-03-22T21:38:58.035Z,4.50
2019-03-22T21:42:02.430Z,3.67
2019-03-22T21:45:06.903Z,2.40
2019-03-22T21:48:10.657Z,5.23
2019-03-22T21:51:14.820Z,5.20
2019-03-22T21:54:20.114Z,2.10
2019-03-22T21:57:23.871Z,3.97
2019-03-22T22:00:27.599Z,5.40
2019-03-22T22:03:31.956Z,2.07
2019-03-22T22:06:36.149Z,5.40
2019-03-22T22:09:40.264Z,6.50
2019-03-22T22:12:43.970Z,3.43
2019-03-22T22:15:47.696Z,7.40
2019-03-22T22:18:52.121Z,5.00
2019-03-22T22:21:55.858Z,8.97
2019-03-22T22:25:00.732Z,7.83
2019-03-22T22:28:04.447Z,7.47
2019-03-22T22:31:08.169Z,6.80
2019-03-22T22:34:11.969Z,8.27
2019-03-22T22:37:15.686Z,14.97
2019-03-22T22:40:19.948Z,6.93
2019-03-22T22:43:23.653Z,5.63
2019-03-22T22:46:27.792Z,6.67
2019-03-22T22:49:31.526Z,9.40
2019-03-22T22:52:35.566Z,9.50
2019-03-22T22:55:39.636Z,9.13
2019-03-22T22:58:43.343Z,7.67
2019-03-22T23:01:47.072Z,8.33
2019-03-22T23:04:50.830Z,9.27
2019-03-22T23:07:55.541Z,9.00
2019-03-22T23:10:59.260Z,7.40
2019-03-22T23:14:03.060Z,6.90
2019-03-22T23:17:06.908Z,8.13
2019-03-22T23:20:11.355Z,11.37
2019-03-22T23:23:15.125Z,7.57
2019-03-22T23:26:19.558Z,5.10
2019-03-22T23:29:23.367Z,3.80
2019-03-22T23:32:27.952Z,6.57
2019-03-22T23:35:34.343Z,5.60
2019-03-22T23:38:38.495Z,8.30
2019-03-22T23:41:43.727Z,5.43
2019-03-22T23:44:47.713Z,7.00
2019-03-22T23:47:52.943Z,6.27
2019-03-22T23:50:57.273Z,6.60
2019-03-22T23:54:01.351Z,9.43
2019-03-22T23:57:06.275Z,10.57
